createdAt,value
2018-12-22T00:00:03.349Z,0.00
2018-12-22T00:01:03.310Z,0.00
2018-12-22T00:02:03.303Z,0.00
2018-12-22T00:03:05.938Z,0.00
2018-12-22T00:04:03.275Z,0.00
2018-12-22T00:05:03.265Z,0.00
2018-12-22T00:06:03.272Z,0.00
2018-12-22T00:07:03.243Z,0.00
2018-12-22T00:08:03.254Z,0.00
2018-12-22T00:09:03.216Z,0.00
2018-12-22T00:10:03.223Z,0.00
2018-12-22T00:11:06.138Z,0.00
2018-12-22T00:12:03.247Z,0.00
2018-12-22T00:13:03.180Z,0.00
2018-12-22T00:14:03.171Z,0.00
2018-12-22T00:15:03.159Z,0.00
2018-12-22T00:16:03.152Z,0.00
2018-12-22T00:17:03.132Z,0.00
2018-12-22T00:18:03.136Z,0.00
2018-12-22T00:19:03.110Z,0.00
2018-12-22T00:20:03.099Z,0.00
2018-12-22T00:21:03.100Z,0.00
2018-12-22T00:22:03.076Z,0.00
2018-12-22T00:23:03.064Z,0.00
2018-12-22T00:24:03.065Z,0.00
2018-12-22T00:25:03.064Z,0.00
2018-12-22T00:26:03.029Z,0.00
2018-12-22T00:27:03.025Z,0.00
2018-12-22T00:28:03.057Z,0.00
2018-12-22T00:29:03.005Z,0.00
2018-12-22T00:30:03.002Z,0.00
2018-12-22T00:31:02.973Z,0.00
2018-12-22T00:32:02.965Z,0.00
2018-12-22T00:33:02.957Z,0.00
2018-12-22T00:34:02.945Z,0.00
2018-12-22T00:35:02.957Z,0.00
2018-12-22T00:36:02.921Z,0.00
2018-12-22T00:37:02.909Z,0.00
2018-12-22T00:38:02.898Z,0.00
2018-12-22T00:39:02.881Z,0.00
2018-12-22T00:40:02.897Z,0.00
2018-12-22T00:41:02.864Z,0.00
2018-12-22T00:42:02.857Z,0.00
2018-12-22T00:43:02.856Z,0.00
2018-12-22T00:44:02.827Z,0.00
2018-12-22T00:45:02.818Z,0.00
2018-12-22T00:46:02.822Z,0.00
2018-12-22T00:47:02.798Z,0.00
2018-12-22T00:48:02.794Z,0.00
2018-12-22T00:49:02.774Z,0.00
2018-12-22T00:50:02.763Z,0.00
2018-12-22T00:51:02.751Z,0.00
2018-12-22T00:52:02.759Z,0.00
2018-12-22T00:53:02.731Z,0.00
2018-12-22T00:54:02.720Z,0.00
2018-12-22T00:55:02.706Z,0.00
2018-12-22T00:56:02.695Z,0.00
2018-12-22T00:57:02.688Z,0.00
2018-12-22T00:58:02.695Z,0.00
2018-12-22T00:59:02.662Z,0.00
2018-12-22T01:00:02.659Z,0.00
2018-12-22T01:01:02.642Z,0.00
2018-12-22T01:02:02.624Z,0.00
2018-12-22T01:03:02.644Z,0.00
2018-12-22T01:04:02.607Z,0.00
2018-12-22T01:05:02.600Z,0.00
2018-12-22T01:06:02.588Z,0.00
2018-12-22T01:07:02.571Z,0.00
2018-12-22T01:08:02.568Z,0.00
2018-12-22T01:09:02.563Z,0.00
2018-12-22T01:10:02.543Z,0.00
2018-12-22T01:11:02.531Z,0.00
2018-12-22T01:12:02.520Z,0.00
2018-12-22T01:13:02.512Z,0.00
2018-12-22T01:14:02.491Z,0.00
2018-12-22T01:15:02.533Z,0.00
2018-12-22T01:16:02.474Z,0.00
2018-12-22T01:17:02.460Z,0.00
2018-12-22T01:18:02.456Z,0.00
2018-12-22T01:19:02.437Z,0.00
2018-12-22T01:20:02.428Z,0.00
2018-12-22T01:21:02.436Z,0.00
2018-12-22T01:22:02.400Z,0.00
2018-12-22T01:23:02.391Z,0.00
2018-12-22T01:24:02.385Z,0.00
2018-12-22T01:25:02.378Z,0.00
2018-12-22T01:26:02.364Z,0.00
2018-12-22T01:27:02.368Z,0.00
2018-12-22T01:28:02.336Z,0.00
2018-12-22T01:29:02.324Z,0.00
2018-12-22T01:30:02.320Z,0.00
2018-12-22T01:31:02.308Z,0.00
2018-12-22T01:32:02.313Z,0.00
2018-12-22T01:33:02.288Z,0.00
2018-12-22T01:34:02.273Z,0.00
2018-12-22T01:35:02.257Z,0.00
2018-12-22T01:36:02.252Z,0.00
2018-12-22T01:37:02.241Z,0.00
2018-12-22T01:38:02.241Z,0.00
2018-12-22T01:39:02.209Z,0.00
2018-12-22T01:40:02.202Z,0.00
2018-12-22T01:41:02.201Z,0.00
2018-12-22T01:42:02.196Z,0.00
2018-12-22T01:43:02.168Z,0.00
2018-12-22T01:44:02.168Z,0.00
2018-12-22T01:45:02.145Z,0.00
2018-12-22T01:46:02.142Z,0.00
2018-12-22T01:47:02.133Z,0.00
2018-12-22T01:48:02.108Z,0.00
2018-12-22T01:49:02.158Z,0.00
2018-12-22T01:50:02.090Z,0.00
2018-12-22T01:51:02.076Z,0.00
2018-12-22T01:52:02.064Z,0.00
2018-12-22T01:53:02.064Z,0.00
2018-12-22T01:54:02.044Z,0.00
2018-12-22T01:55:02.044Z,0.00
2018-12-22T01:56:02.017Z,0.00
2018-12-22T01:57:02.008Z,0.00
2018-12-22T01:58:02.000Z,0.00
2018-12-22T01:59:01.992Z,0.00
2018-12-22T02:00:01.996Z,0.00
2018-12-22T02:01:01.968Z,0.00
2018-12-22T02:02:01.960Z,0.00
2018-12-22T02:03:01.946Z,0.00
2018-12-22T02:04:01.932Z,0.00
2018-12-22T02:05:01.928Z,0.00
2018-12-22T02:06:01.933Z,0.00
2018-12-22T02:07:01.898Z,0.00
2018-12-22T02:08:01.888Z,0.00
2018-12-22T02:09:01.881Z,0.00
2018-12-22T02:10:01.869Z,0.00
2018-12-22T02:11:01.849Z,0.00
2018-12-22T02:12:01.852Z,0.00
2018-12-22T02:13:01.828Z,0.00
2018-12-22T02:14:01.848Z,0.00
2018-12-22T02:15:01.808Z,0.00
2018-12-22T02:16:01.797Z,0.00
2018-12-22T02:17:01.785Z,0.00
2018-12-22T02:18:01.773Z,0.00
2018-12-22T02:19:01.765Z,0.00
2018-12-22T02:20:01.772Z,0.00
2018-12-22T02:21:01.738Z,0.00
2018-12-22T02:22:01.730Z,0.00
2018-12-22T02:23:01.717Z,0.00
2018-12-22T02:24:01.704Z,0.00
2018-12-22T02:25:01.694Z,0.00
2018-12-22T02:26:01.705Z,0.00
2018-12-22T02:27:01.668Z,0.00
2018-12-22T02:28:01.660Z,0.00
2018-12-22T02:29:01.650Z,0.00
2018-12-22T02:30:01.640Z,0.00
2018-12-22T02:31:01.640Z,0.00
2018-12-22T02:32:01.620Z,0.00
2018-12-22T02:33:01.608Z,0.00
2018-12-22T02:34:01.603Z,0.00
2018-12-22T02:35:01.598Z,0.00
2018-12-22T02:36:01.572Z,0.00
2018-12-22T02:37:01.589Z,0.00
2018-12-22T02:38:01.557Z,0.00
2018-12-22T02:39:01.555Z,0.00
2018-12-22T02:40:01.525Z,0.00
2018-12-22T02:41:01.517Z,0.00
2018-12-22T02:42:01.514Z,0.00
2018-12-22T02:43:01.513Z,0.00
2018-12-22T02:44:01.496Z,0.00
2018-12-22T02:45:01.484Z,0.00
2018-12-22T02:46:01.463Z,0.00
2018-12-22T02:47:01.453Z,0.00
2018-12-22T02:48:01.437Z,0.00
2018-12-22T02:49:01.442Z,0.00
2018-12-22T02:50:01.413Z,0.00
2018-12-22T02:51:01.401Z,0.00
2018-12-22T02:52:01.389Z,0.00
2018-12-22T02:53:01.389Z,0.00
2018-12-22T02:54:01.381Z,0.00
2018-12-22T02:55:01.383Z,0.00
2018-12-22T02:56:01.346Z,0.00
2018-12-22T02:57:01.333Z,0.00
2018-12-22T02:58:01.326Z,0.00
2018-12-22T02:59:05.888Z,0.00
2018-12-22T03:00:02.326Z,0.00
2018-12-22T03:01:01.289Z,0.00
2018-12-22T03:02:01.277Z,0.00
2018-12-22T03:03:01.269Z,0.00
2018-12-22T03:04:01.255Z,0.00
2018-12-22T03:05:01.254Z,0.00
2018-12-22T03:06:01.241Z,0.00
2018-12-22T03:07:01.238Z,0.00
2018-12-22T03:08:01.218Z,0.00
2018-12-22T03:09:01.202Z,0.00
2018-12-22T03:10:01.191Z,0.00
2018-12-22T03:11:01.182Z,0.00
2018-12-22T03:12:01.160Z,0.00
2018-12-22T03:13:01.168Z,0.00
2018-12-22T03:14:01.142Z,0.00
2018-12-22T03:15:01.129Z,0.00
2018-12-22T03:16:01.119Z,0.00
2018-12-22T03:17:01.113Z,0.00
2018-12-22T03:18:01.093Z,0.00
2018-12-22T03:19:01.115Z,0.00
2018-12-22T03:20:01.078Z,0.00
2018-12-22T03:21:01.061Z,0.00
2018-12-22T03:22:01.053Z,0.00
2018-12-22T03:23:01.048Z,0.00
2018-12-22T03:24:01.032Z,0.00
2018-12-22T03:25:01.033Z,0.00
2018-12-22T03:26:01.009Z,0.00
2018-12-22T03:27:01.041Z,0.00
2018-12-22T03:28:00.981Z,0.00
2018-12-22T03:29:00.977Z,0.00
2018-12-22T03:30:00.967Z,0.00
2018-12-22T03:31:00.966Z,0.00
2018-12-22T03:32:00.938Z,0.00
2018-12-22T03:33:00.926Z,0.00
2018-12-22T03:34:00.913Z,0.00
2018-12-22T03:35:00.905Z,0.00
2018-12-22T03:36:00.913Z,0.00
2018-12-22T03:37:00.892Z,0.00
2018-12-22T03:38:00.877Z,0.00
2018-12-22T03:39:00.861Z,0.00
2018-12-22T03:40:00.848Z,0.00
2018-12-22T03:41:00.837Z,0.00
2018-12-22T03:42:00.845Z,0.00
2018-12-22T03:43:00.818Z,0.00
2018-12-22T03:44:00.829Z,0.00
2018-12-22T03:45:00.793Z,0.00
2018-12-22T03:46:00.789Z,0.00
2018-12-22T03:47:00.774Z,0.00
2018-12-22T03:48:00.770Z,0.00
2018-12-22T03:49:00.753Z,0.00
2018-12-22T03:50:00.736Z,0.00
2018-12-22T03:51:00.729Z,0.00
2018-12-22T03:52:00.717Z,0.00
2018-12-22T03:53:00.733Z,0.00
2018-12-22T03:54:00.693Z,0.00
2018-12-22T03:55:00.682Z,0.00
2018-12-22T03:56:00.684Z,0.00
2018-12-22T03:57:00.660Z,0.00
2018-12-22T03:58:00.648Z,0.00
2018-12-22T03:59:00.660Z,0.00
2018-12-22T04:00:00.630Z,0.00
2018-12-22T04:01:00.620Z,0.00
2018-12-22T04:02:00.604Z,0.00
2018-12-22T04:03:00.593Z,0.00
2018-12-22T04:04:00.593Z,0.00
2018-12-22T04:05:00.598Z,0.00
2018-12-22T04:06:00.569Z,0.00
2018-12-22T04:07:00.550Z,0.00
2018-12-22T04:08:00.532Z,0.00
2018-12-22T04:09:00.524Z,0.00
2018-12-22T04:10:00.520Z,0.00
2018-12-22T04:11:00.516Z,0.00
2018-12-22T04:12:00.512Z,0.00
2018-12-22T04:13:00.480Z,0.00
2018-12-22T04:14:00.461Z,0.00
2018-12-22T04:15:00.459Z,0.00
2018-12-22T04:16:00.473Z,0.00
2018-12-22T04:17:00.428Z,0.00
2018-12-22T04:18:00.429Z,0.00
2018-12-22T04:19:00.411Z,0.00
2018-12-22T04:20:00.393Z,0.00
2018-12-22T04:21:00.387Z,0.00
2018-12-22T04:22:00.405Z,0.00
2018-12-22T04:23:00.368Z,0.00
2018-12-22T04:24:00.351Z,0.00
2018-12-22T04:25:00.345Z,0.00
2018-12-22T04:26:00.329Z,0.00
2018-12-22T04:27:00.319Z,0.00
2018-12-22T04:28:00.335Z,0.00
2018-12-22T04:29:00.295Z,0.00
2018-12-22T04:30:00.283Z,0.00
2018-12-22T04:31:00.275Z,0.00
2018-12-22T04:32:00.267Z,0.00
2018-12-22T04:33:00.251Z,0.00
2018-12-22T04:34:00.264Z,0.00
2018-12-22T04:35:00.256Z,0.00
2018-12-22T04:36:00.223Z,0.00
2018-12-22T04:37:00.202Z,0.00
2018-12-22T04:38:00.198Z,0.00
2018-12-22T04:39:00.186Z,0.00
2018-12-22T04:40:00.187Z,0.00
2018-12-22T04:41:00.174Z,0.00
2018-12-22T04:42:00.169Z,0.00
2018-12-22T04:43:00.143Z,0.00
2018-12-22T04:44:00.126Z,0.00
2018-12-22T04:45:00.115Z,0.00
2018-12-22T04:46:00.105Z,0.00
2018-12-22T04:47:00.124Z,0.00
2018-12-22T04:48:00.083Z,0.00
2018-12-22T04:49:00.066Z,0.00
2018-12-22T04:50:00.108Z,0.00
2018-12-22T04:51:00.061Z,0.00
2018-12-22T04:52:00.035Z,0.00
2018-12-22T04:53:00.042Z,0.00
2018-12-22T04:54:00.066Z,0.00
2018-12-22T04:55:00.000Z,0.00
2018-12-22T04:55:59.991Z,0.00
2018-12-22T04:56:59.985Z,0.00
2018-12-22T04:57:59.974Z,0.00
2018-12-22T04:58:59.974Z,0.00
2018-12-22T04:59:59.963Z,0.00
2018-12-22T05:00:59.934Z,0.00
2018-12-22T05:01:59.918Z,0.00
2018-12-22T05:02:59.910Z,0.00
2018-12-22T05:03:59.904Z,0.00
2018-12-22T05:04:59.890Z,0.00
2018-12-22T05:05:59.903Z,0.00
2018-12-22T05:06:59.866Z,0.00
2018-12-22T05:07:59.856Z,0.00
2018-12-22T05:08:59.842Z,0.00
2018-12-22T05:09:59.835Z,0.00
2018-12-22T05:10:59.818Z,0.00
2018-12-22T05:11:59.843Z,0.00
2018-12-22T05:12:59.794Z,0.00
2018-12-22T05:13:59.787Z,0.00
2018-12-22T05:14:59.777Z,0.00
2018-12-22T05:15:59.762Z,0.00
2018-12-22T05:16:59.754Z,0.00
2018-12-22T05:17:59.757Z,0.00
2018-12-22T05:18:59.730Z,0.00
2018-12-22T05:19:59.718Z,0.00
2018-12-22T05:20:59.709Z,0.00
2018-12-22T05:21:59.698Z,0.00
2018-12-22T05:22:59.698Z,0.00
2018-12-22T05:23:59.674Z,0.00
2018-12-22T05:24:59.666Z,0.00
2018-12-22T05:25:59.674Z,0.00
2018-12-22T05:26:59.638Z,0.00
2018-12-22T05:27:59.626Z,0.00
2018-12-22T05:28:59.618Z,4.00
2018-12-22T05:29:59.610Z,4.00
2018-12-22T05:30:59.596Z,4.00
2018-12-22T05:31:59.598Z,4.00
2018-12-22T05:32:59.577Z,4.00
2018-12-22T05:33:59.582Z,4.00
2018-12-22T05:34:59.546Z,4.00
2018-12-22T05:35:59.546Z,4.00
2018-12-22T05:36:59.535Z,4.00
2018-12-22T05:37:59.521Z,4.00
2018-12-22T05:38:59.506Z,4.00
2018-12-22T05:39:59.506Z,4.00
2018-12-22T05:40:59.485Z,4.00
2018-12-22T05:41:59.478Z,4.00
2018-12-22T05:42:59.461Z,4.00
2018-12-22T05:43:59.458Z,4.00
2018-12-22T05:44:59.453Z,4.00
2018-12-22T05:45:59.422Z,4.00
2018-12-22T05:46:59.413Z,4.00
2018-12-22T05:47:59.408Z,4.00
2018-12-22T05:48:59.393Z,4.00
2018-12-22T05:49:59.381Z,4.00
2018-12-22T05:50:59.393Z,4.00
2018-12-22T05:51:59.365Z,4.00
2018-12-22T05:52:59.349Z,4.00
2018-12-22T05:53:59.345Z,4.00
2018-12-22T05:54:59.330Z,4.00
2018-12-22T05:55:59.313Z,4.00
2018-12-22T05:56:59.322Z,4.00
2018-12-22T05:57:59.297Z,4.00
2018-12-22T05:58:59.293Z,4.00
2018-12-22T06:00:00.660Z,4.00
2018-12-22T06:00:59.258Z,4.00
2018-12-22T06:01:59.253Z,4.00
2018-12-22T06:02:59.253Z,4.00
2018-12-22T06:03:59.221Z,4.00
2018-12-22T06:04:59.218Z,4.00
2018-12-22T06:05:59.205Z,4.00
2018-12-22T06:06:59.193Z,4.00
2018-12-22T06:07:59.197Z,4.00
2018-12-22T06:08:59.173Z,4.00
2018-12-22T06:09:59.157Z,4.00
2018-12-22T06:10:59.145Z,4.00
2018-12-22T06:11:59.133Z,4.00
2018-12-22T06:12:59.126Z,4.00
2018-12-22T06:13:59.133Z,4.00
2018-12-22T06:14:59.101Z,4.00
2018-12-22T06:15:59.089Z,4.00
2018-12-22T06:16:59.081Z,4.00
2018-12-22T06:17:59.073Z,4.00
2018-12-22T06:18:59.081Z,4.00
2018-12-22T06:19:59.049Z,4.00
2018-12-22T06:20:59.037Z,4.00
2018-12-22T06:21:59.026Z,4.00
2018-12-22T06:22:59.009Z,4.00
2018-12-22T06:23:59.010Z,4.00
2018-12-22T06:24:59.002Z,4.00
2018-12-22T06:25:58.975Z,4.00
2018-12-22T06:26:58.966Z,4.00
2018-12-22T06:27:58.957Z,4.00
2018-12-22T06:28:58.945Z,4.00
2018-12-22T06:29:58.949Z,4.00
2018-12-22T06:30:58.953Z,4.00
2018-12-22T06:31:58.909Z,4.00
2018-12-22T06:32:58.901Z,4.00
2018-12-22T06:33:58.889Z,4.00
2018-12-22T06:34:58.892Z,4.00
2018-12-22T06:35:58.877Z,4.00
2018-12-22T06:36:58.873Z,4.00
2018-12-22T06:37:58.843Z,4.00
2018-12-22T06:38:58.834Z,4.00
2018-12-22T06:39:58.822Z,4.00
2018-12-22T06:40:58.829Z,4.00
2018-12-22T06:41:58.801Z,4.00
2018-12-22T06:42:58.790Z,4.00
2018-12-22T06:43:58.774Z,4.00
2018-12-22T06:44:58.772Z,4.00
2018-12-22T06:45:58.753Z,4.00
2018-12-22T06:46:58.761Z,4.00
2018-12-22T06:47:58.773Z,4.00
2018-12-22T06:48:58.729Z,4.00
2018-12-22T06:49:58.705Z,4.00
2018-12-22T06:50:58.701Z,4.00
2018-12-22T06:51:58.697Z,4.00
2018-12-22T06:52:58.674Z,4.00
2018-12-22T06:53:58.661Z,4.00
2018-12-22T06:54:58.653Z,4.00
2018-12-22T06:55:58.642Z,0.00
2018-12-22T06:56:58.629Z,0.00
2018-12-22T06:57:58.669Z,0.00
2018-12-22T06:58:58.612Z,0.00
2018-12-22T06:59:58.609Z,0.00
2018-12-22T07:00:58.597Z,0.00
2018-12-22T07:01:58.589Z,0.00
2018-12-22T07:02:58.584Z,0.00
2018-12-22T07:03:58.573Z,0.00
2018-12-22T07:04:58.537Z,0.00
2018-12-22T07:05:58.529Z,0.00
2018-12-22T07:06:58.517Z,0.00
2018-12-22T07:07:58.510Z,0.00
2018-12-22T07:08:58.493Z,0.00
2018-12-22T07:09:58.497Z,4.00
2018-12-22T07:10:58.467Z,4.00
2018-12-22T07:11:58.467Z,4.00
2018-12-22T07:12:58.446Z,4.00
2018-12-22T07:13:58.431Z,4.00
2018-12-22T07:14:58.422Z,4.00
2018-12-22T07:15:58.430Z,4.00
2018-12-22T07:16:58.402Z,8.00
2018-12-22T07:17:58.395Z,8.00
2018-12-22T07:18:58.378Z,4.00
2018-12-22T07:19:58.367Z,8.00
2018-12-22T07:20:58.372Z,8.00
2018-12-22T07:21:58.346Z,8.00
2018-12-22T07:22:58.337Z,16.00
2018-12-22T07:23:58.332Z,16.00
2018-12-22T07:24:58.313Z,20.00
2018-12-22T07:25:58.310Z,24.00
2018-12-22T07:26:58.304Z,24.00
2018-12-22T07:27:58.276Z,24.00
2018-12-22T07:28:58.287Z,20.00
2018-12-22T07:29:58.255Z,28.00
2018-12-22T07:30:58.241Z,20.00
2018-12-22T07:31:58.256Z,16.00
2018-12-22T07:32:58.217Z,16.00
2018-12-22T07:33:58.208Z,20.00
2018-12-22T07:34:58.204Z,16.00
2018-12-22T07:35:58.184Z,16.00
2018-12-22T07:36:58.176Z,20.00
2018-12-22T07:37:58.184Z,16.00
2018-12-22T07:38:58.152Z,16.00
2018-12-22T07:39:58.136Z,20.00
2018-12-22T07:40:58.132Z,16.00
2018-12-22T07:41:58.121Z,16.00
2018-12-22T07:42:58.108Z,24.00
2018-12-22T07:43:58.108Z,28.00
2018-12-22T07:44:58.086Z,32.00
2018-12-22T07:45:58.072Z,32.00
2018-12-22T07:46:58.068Z,28.00
2018-12-22T07:47:58.048Z,32.00
2018-12-22T07:48:58.044Z,24.00
2018-12-22T07:49:58.043Z,20.00
2018-12-22T07:50:58.020Z,24.00
2018-12-22T07:51:58.008Z,20.00
2018-12-22T07:52:58.024Z,24.00
2018-12-22T07:53:57.979Z,24.00
2018-12-22T07:54:57.971Z,20.00
2018-12-22T07:55:57.972Z,24.00
2018-12-22T07:56:57.948Z,28.00
2018-12-22T07:57:59.473Z,28.00
2018-12-22T07:58:57.928Z,28.00
2018-12-22T07:59:57.917Z,20.00
2018-12-22T08:00:57.901Z,20.00
2018-12-22T08:01:57.909Z,24.00
2018-12-22T08:02:57.877Z,24.00
2018-12-22T08:03:57.881Z,52.00
2018-12-22T08:04:57.865Z,80.00
2018-12-22T08:05:57.861Z,96.00
2018-12-22T08:06:57.837Z,100.00
2018-12-22T08:07:57.833Z,104.00
2018-12-22T08:08:57.817Z,104.00
2018-12-22T08:09:57.809Z,108.00
2018-12-22T08:10:57.793Z,112.00
2018-12-22T08:11:57.797Z,140.00
2018-12-22T08:12:57.773Z,180.00
2018-12-22T08:13:57.766Z,192.00
2018-12-22T08:14:57.749Z,180.00
2018-12-22T08:15:57.739Z,184.00
2018-12-22T08:16:57.726Z,180.00
2018-12-22T08:17:57.741Z,168.00
2018-12-22T08:18:57.703Z,156.00
2018-12-22T08:19:57.693Z,160.00
2018-12-22T08:20:57.709Z,172.00
2018-12-22T08:21:57.673Z,204.00
2018-12-22T08:22:57.678Z,212.00
2018-12-22T08:23:57.645Z,212.00
2018-12-22T08:24:57.641Z,220.00
2018-12-22T08:25:57.625Z,224.00
2018-12-22T08:26:57.617Z,212.00
2018-12-22T08:27:57.598Z,200.00
2018-12-22T08:28:57.609Z,200.00
2018-12-22T08:29:57.585Z,200.00
2018-12-22T08:30:57.569Z,192.00
2018-12-22T08:31:57.558Z,200.00
2018-12-22T08:32:57.545Z,232.00
2018-12-22T08:33:57.549Z,284.00
2018-12-22T08:34:57.525Z,304.00
2018-12-22T08:35:57.513Z,316.00
2018-12-22T08:36:57.501Z,368.00
2018-12-22T08:37:57.489Z,388.00
2018-12-22T08:38:57.477Z,388.00
2018-12-22T08:39:57.480Z,396.00
2018-12-22T08:40:57.456Z,360.00
2018-12-22T08:41:57.459Z,316.00
2018-12-22T08:42:57.437Z,276.00
2018-12-22T08:43:57.421Z,236.00
2018-12-22T08:44:57.408Z,208.00
2018-12-22T08:45:57.413Z,200.00
2018-12-22T08:46:57.385Z,208.00
2018-12-22T08:47:57.385Z,192.00
2018-12-22T08:48:57.364Z,156.00
2018-12-22T08:49:57.353Z,152.00
2018-12-22T08:50:57.356Z,128.00
2018-12-22T08:51:57.328Z,116.00
2018-12-22T08:52:57.316Z,112.00
2018-12-22T08:53:57.312Z,124.00
2018-12-22T08:54:57.296Z,124.00
2018-12-22T08:55:57.285Z,164.00
2018-12-22T08:56:57.284Z,128.00
2018-12-22T08:57:57.268Z,92.00
2018-12-22T08:58:57.252Z,72.00
2018-12-22T08:59:57.251Z,76.00
2018-12-22T09:00:57.228Z,76.00
2018-12-22T09:01:57.216Z,72.00
2018-12-22T09:02:57.236Z,76.00
2018-12-22T09:03:57.197Z,112.00
2018-12-22T09:04:57.186Z,120.00
2018-12-22T09:05:57.176Z,80.00
2018-12-22T09:06:57.170Z,72.00
2018-12-22T09:07:57.152Z,104.00
2018-12-22T09:08:57.157Z,108.00
2018-12-22T09:09:57.133Z,108.00
2018-12-22T09:10:57.115Z,128.00
2018-12-22T09:11:57.105Z,172.00
2018-12-22T09:12:57.103Z,216.00
2018-12-22T09:13:57.080Z,276.00
2018-12-22T09:14:57.088Z,392.00
2018-12-22T09:15:57.061Z,440.00
2018-12-22T09:16:57.047Z,500.00
2018-12-22T09:17:57.043Z,488.00
2018-12-22T09:18:57.039Z,472.00
2018-12-22T09:19:57.137Z,460.00
2018-12-22T09:20:57.027Z,512.00
2018-12-22T09:21:56.992Z,460.00
2018-12-22T09:22:56.983Z,456.00
2018-12-22T09:23:56.971Z,500.00
2018-12-22T09:24:56.966Z,564.00
2018-12-22T09:25:56.951Z,568.00
2018-12-22T09:26:56.945Z,556.00
2018-12-22T09:27:56.931Z,592.00
2018-12-22T09:28:56.915Z,668.00
2018-12-22T09:29:56.903Z,696.00
2018-12-22T09:31:00.709Z,724.00
2018-12-22T09:31:56.975Z,764.00
2018-12-22T09:32:56.896Z,792.00
2018-12-22T09:33:56.859Z,744.00
2018-12-22T09:34:56.848Z,660.00
2018-12-22T09:35:56.849Z,600.00
2018-12-22T09:36:56.831Z,540.00
2018-12-22T09:37:56.811Z,480.00
2018-12-22T09:38:56.819Z,440.00
2018-12-22T09:39:56.788Z,428.00
2018-12-22T09:40:56.778Z,468.00
2018-12-22T09:41:56.774Z,480.00
2018-12-22T09:42:56.772Z,496.00
2018-12-22T09:43:56.748Z,488.00
2018-12-22T09:44:56.747Z,500.00
2018-12-22T09:45:56.723Z,584.00
2018-12-22T09:46:56.711Z,652.00
2018-12-22T09:47:56.703Z,664.00
2018-12-22T09:48:56.714Z,588.00
2018-12-22T09:49:56.691Z,516.00
2018-12-22T09:50:56.667Z,508.00
2018-12-22T09:51:56.655Z,528.00
2018-12-22T09:52:56.674Z,640.00
2018-12-22T09:53:56.636Z,704.00
2018-12-22T09:54:56.643Z,688.00
2018-12-22T09:55:56.612Z,644.00
2018-12-22T09:56:56.607Z,644.00
2018-12-22T09:57:56.586Z,652.00
2018-12-22T09:58:56.575Z,652.00
2018-12-22T09:59:56.567Z,672.00
2018-12-22T10:00:56.587Z,584.00
2018-12-22T10:01:56.539Z,564.00
2018-12-22T10:02:56.531Z,508.00
2018-12-22T10:03:56.522Z,504.00
2018-12-22T10:04:56.515Z,448.00
2018-12-22T10:05:56.511Z,396.00
2018-12-22T10:06:56.515Z,388.00
2018-12-22T10:07:56.474Z,316.00
2018-12-22T10:08:56.468Z,280.00
2018-12-22T10:09:56.462Z,252.00
2018-12-22T10:10:56.599Z,240.00
2018-12-22T10:11:56.431Z,248.00
2018-12-22T10:12:56.435Z,232.00
2018-12-22T10:13:56.421Z,216.00
2018-12-22T10:14:56.400Z,200.00
2018-12-22T10:15:56.387Z,200.00
2018-12-22T10:16:56.383Z,216.00
2018-12-22T10:17:56.363Z,180.00
2018-12-22T10:18:56.368Z,172.00
2018-12-22T10:19:56.347Z,336.00
2018-12-22T10:20:56.339Z,428.00
2018-12-22T10:21:56.319Z,340.00
2018-12-22T10:22:56.307Z,336.00
2018-12-22T10:23:56.294Z,324.00
2018-12-22T10:24:56.295Z,428.00
2018-12-22T10:25:56.286Z,384.00
2018-12-22T10:26:56.263Z,408.00
2018-12-22T10:27:56.281Z,312.00
2018-12-22T10:28:56.240Z,260.00
2018-12-22T10:29:56.234Z,196.00
2018-12-22T10:30:56.235Z,196.00
2018-12-22T10:31:56.211Z,180.00
2018-12-22T10:32:56.199Z,264.00
2018-12-22T10:33:56.207Z,308.00
2018-12-22T10:34:56.174Z,316.00
2018-12-22T10:35:56.168Z,336.00
2018-12-22T10:36:56.165Z,400.00
2018-12-22T10:37:56.151Z,532.00
2018-12-22T10:38:56.127Z,764.00
2018-12-22T10:39:56.120Z,780.00
2018-12-22T10:40:56.102Z,808.00
2018-12-22T10:41:56.091Z,560.00
2018-12-22T10:42:56.104Z,416.00
2018-12-22T10:43:56.082Z,492.00
2018-12-22T10:44:56.067Z,540.00
2018-12-22T10:45:56.051Z,464.00
2018-12-22T10:46:56.038Z,480.00
2018-12-22T10:47:56.166Z,504.00
2018-12-22T10:48:56.015Z,580.00
2018-12-22T10:49:56.007Z,620.00
2018-12-22T10:50:55.990Z,568.00
2018-12-22T10:51:55.979Z,496.00
2018-12-22T10:52:55.971Z,576.00
2018-12-22T10:53:55.991Z,480.00
2018-12-22T10:54:55.987Z,452.00
2018-12-22T10:55:55.939Z,280.00
2018-12-22T10:56:55.927Z,272.00
2018-12-22T10:57:55.915Z,356.00
2018-12-22T10:58:55.944Z,424.00
2018-12-22T10:59:55.906Z,528.00
2018-12-22T11:00:55.883Z,564.00
2018-12-22T11:01:55.866Z,600.00
2018-12-22T11:02:55.853Z,632.00
2018-12-22T11:03:55.855Z,824.00
2018-12-22T11:04:55.838Z,824.00
2018-12-22T11:05:55.842Z,632.00
2018-12-22T11:06:55.811Z,508.00
2018-12-22T11:07:55.802Z,480.00
2018-12-22T11:08:55.790Z,780.00
2018-12-22T11:09:55.779Z,760.00
2018-12-22T11:10:55.790Z,664.00
2018-12-22T11:11:55.787Z,692.00
2018-12-22T11:12:55.742Z,824.00
2018-12-22T11:13:55.735Z,880.00
2018-12-22T11:14:55.722Z,1112.00
2018-12-22T11:15:55.738Z,1100.00
2018-12-22T11:16:55.726Z,1216.00
2018-12-22T11:17:55.686Z,1064.00
2018-12-22T11:18:55.675Z,1060.00
2018-12-22T11:19:55.662Z,872.00
2018-12-22T11:20:55.654Z,692.00
2018-12-22T11:21:55.658Z,636.00
2018-12-22T11:22:55.636Z,624.00
2018-12-22T11:23:55.622Z,396.00
2018-12-22T11:24:55.610Z,456.00
2018-12-22T11:25:55.598Z,596.00
2018-12-22T11:26:55.586Z,716.00
2018-12-22T11:27:55.590Z,676.00
2018-12-22T11:28:55.564Z,644.00
2018-12-22T11:29:55.558Z,524.00
2018-12-22T11:30:55.538Z,628.00
2018-12-22T11:31:55.530Z,664.00
2018-12-22T11:32:55.518Z,648.00
2018-12-22T11:33:55.521Z,700.00
2018-12-22T11:34:55.491Z,820.00
2018-12-22T11:35:55.497Z,1068.00
2018-12-22T11:36:55.473Z,1308.00
2018-12-22T11:37:55.461Z,1412.00
2018-12-22T11:38:55.449Z,1344.00
2018-12-22T11:39:55.456Z,1164.00
2018-12-22T11:40:55.430Z,1088.00
2018-12-22T11:41:55.434Z,824.00
2018-12-22T11:42:55.407Z,700.00
2018-12-22T11:43:55.394Z,724.00
2018-12-22T11:44:55.382Z,748.00
2018-12-22T11:45:55.372Z,680.00
2018-12-22T11:46:55.362Z,724.00
2018-12-22T11:47:55.379Z,876.00
2018-12-22T11:48:55.342Z,900.00
2018-12-22T11:49:55.325Z,916.00
2018-12-22T11:50:55.365Z,1032.00
2018-12-22T11:51:55.307Z,1036.00
2018-12-22T11:52:55.317Z,1180.00
2018-12-22T11:53:55.282Z,1280.00
2018-12-22T11:54:55.280Z,1284.00
2018-12-22T11:55:55.258Z,1284.00
2018-12-22T11:56:55.249Z,1396.00
2018-12-22T11:57:55.240Z,1452.00
2018-12-22T11:58:55.250Z,1444.00
2018-12-22T11:59:55.213Z,1544.00
2018-12-22T12:00:55.209Z,1512.00
2018-12-22T12:01:55.190Z,1564.00
2018-12-22T12:02:55.182Z,1536.00
2018-12-22T12:03:55.166Z,1636.00
2018-12-22T12:04:55.170Z,1712.00
2018-12-22T12:05:55.190Z,1648.00
2018-12-22T12:06:55.142Z,1644.00
2018-12-22T12:07:55.122Z,1628.00
2018-12-22T12:08:55.113Z,1668.00
2018-12-22T12:09:55.115Z,1588.00
2018-12-22T12:10:55.092Z,1508.00
2018-12-22T12:11:55.094Z,1344.00
2018-12-22T12:12:55.065Z,1248.00
2018-12-22T12:13:55.055Z,928.00
2018-12-22T12:14:55.045Z,628.00
2018-12-22T12:15:55.045Z,996.00
2018-12-22T12:16:55.102Z,824.00
2018-12-22T12:17:55.011Z,856.00
2018-12-22T12:18:54.998Z,848.00
2018-12-22T12:19:54.994Z,812.00
2018-12-22T12:20:54.982Z,876.00
2018-12-22T12:21:54.969Z,844.00
2018-12-22T12:22:54.974Z,1244.00
2018-12-22T12:23:54.958Z,1376.00
2018-12-22T12:24:54.938Z,1428.00
2018-12-22T12:25:54.923Z,1472.00
2018-12-22T12:26:54.914Z,1744.00
2018-12-22T12:27:54.906Z,1564.00
2018-12-22T12:28:54.910Z,1936.00
2018-12-22T12:29:54.877Z,1860.00
2018-12-22T12:30:54.869Z,2092.00
2018-12-22T12:31:54.854Z,2072.00
2018-12-22T12:32:54.855Z,1604.00
2018-12-22T12:33:54.830Z,1656.00
2018-12-22T12:34:54.830Z,1764.00
2018-12-22T12:35:54.812Z,1528.00
2018-12-22T12:36:54.803Z,1380.00
2018-12-22T12:37:54.804Z,1160.00
2018-12-22T12:38:54.777Z,1232.00
2018-12-22T12:39:54.762Z,1180.00
2018-12-22T12:40:54.753Z,1064.00
2018-12-22T12:41:54.738Z,972.00
2018-12-22T12:42:54.730Z,1008.00
2018-12-22T12:43:54.740Z,1156.00
2018-12-22T12:44:54.702Z,1088.00
2018-12-22T12:45:54.695Z,1124.00
2018-12-22T12:46:54.690Z,1168.00
2018-12-22T12:47:54.673Z,1088.00
2018-12-22T12:48:54.678Z,1156.00
2018-12-22T12:49:54.665Z,1112.00
2018-12-22T12:50:54.637Z,964.00
2018-12-22T12:51:54.625Z,1036.00
2018-12-22T12:52:54.614Z,1504.00
2018-12-22T12:53:54.602Z,1476.00
2018-12-22T12:54:54.613Z,1288.00